Terminal Aerodrome Forecast
Issued by NWS Pocatello, ID

Home | Current Version | Previous Version | Text Only | Print | Product List | Glossary On
Versions: 1 2 3 4 5 6 7 8 9 10 11 12
000
FTUS45 KPIH 050520
TAFPIH
TAF
KPIH 050520Z 0506/0606 23010KT P6SM SCT120 BKN200
     FM051100 27015KT P6SM SCT060 BKN110 BKN180
     FM051500 23015G25KT P6SM VCSH SCT060 BKN100 OVC150
     FM051900 24015KT P6SM VCTS BKN060CB BKN100 OVC140
     FM060200 22010KT P6SM OVC090=

USA.gov is the U.S. government's official web portal to all federal, state and local government web resources and services.